Archival Weather

Chicago O'Hare International

Chicago, Illinois (KORD)

Report from: Sunday, November 19, 2023 8:51 PM CST
Current time: Sunday, February 25, 2024 2:45 PM CST

Current weather – Weather history – Daily summaries
Weather forecast

Temperature7.8°C (46.0°F)
Wind chill5.5°C (41.9°F)
Dew point3.3°C (37.9°F)
Winds 7 kts (3.6 m/s, 8.1 mph) East-Northeast (60°)
Visibility10 mi. (16.1 km)
Clouds Ceiling: Broken clouds 23,000 ft. (7,010 m)
Altimeter30.09 in.Hg (1019 mB)
Relative humidity73 %
Density altitude-959 ft. (-292 m)
Sea-level pressure101.9 kPa (1019 mB, 30.10 in.Hg)
Remarks Automated weather observing station with precipitation discriminator
Pressure rising more quickly
Flight conditions Visual Meteorological Conditions
Raw dataKORD 200251Z 06007KT 10SM BKN230 08/03 A3009 RMK AO2 SLP194 T00780033 53011
An error has occurred. This application may no longer respond until reloaded. Reload 🗙